Forgan, Oklahoma
Current Conditions -  °F | °C
As of 12:35 AM on Sunday 21 Dec 2014 (Local Time) from KLBL Reporting Station
Clear Clear  
Wind Chill: 24°   Ceiling: Unl
Heat Index: 32°   Visibility: 7mi
Dew Point: 27°   Wind: 10mph
Humidity: 80%   Direction: 180°S
Pressure: 29.97"   Gusts: NA
Location:  36.91°N, 100.54°W
Report Text: KLBL 210635Z AUTO 18009KT 7SM CLR 00/M03 A2997 RMK AO1
Loading
Personal Weather Stations






























Interactive Weather Map New forecast layout! Learn more

10-Day Weather Forecast

Advertisements
Track Severe Weather on mobile